sensor_id;sensor_type;location;lat;lon;timestamp;temperature;humidity
23803;DHT22;12082;51.786;6.018;2023-11-19T00:01:55;12.90;99.90
23803;DHT22;12082;51.786;6.018;2023-11-19T00:04:22;12.90;99.90
23803;DHT22;12082;51.786;6.018;2023-11-19T00:06:48;12.90;99.90
23803;DHT22;12082;51.786;6.018;2023-11-19T00:09:13;13.00;99.90
23803;DHT22;12082;51.786;6.018;2023-11-19T00:11:40;13.00;99.90
23803;DHT22;12082;51.786;6.018;2023-11-19T00:14:06;13.00;99.90
23803;DHT22;12082;51.786;6.018;2023-11-19T00:16:34;13.00;99.90
23803;DHT22;12082;51.786;6.018;2023-11-19T00:19:00;13.00;99.90
23803;DHT22;12082;51.786;6.018;2023-11-19T00:21:25;13.00;99.90
23803;DHT22;12082;51.786;6.018;2023-11-19T00:23:54;13.00;99.90
23803;DHT22;12082;51.786;6.018;2023-11-19T00:26:19;13.10;99.90
23803;DHT22;12082;51.786;6.018;2023-11-19T00:28:45;13.00;99.90
23803;DHT22;12082;51.786;6.018;2023-11-19T00:31:10;13.10;99.90
23803;DHT22;12082;51.786;6.018;2023-11-19T00:33:36;13.10;99.90
23803;DHT22;12082;51.786;6.018;2023-11-19T00:36:03;13.10;99.90
23803;DHT22;12082;51.786;6.018;2023-11-19T00:38:28;13.10;99.90
23803;DHT22;12082;51.786;6.018;2023-11-19T00:40:57;13.10;99.90
23803;DHT22;12082;51.786;6.018;2023-11-19T00:43:22;13.00;99.90
23803;DHT22;12082;51.786;6.018;2023-11-19T00:45:48;13.10;99.90
23803;DHT22;12082;51.786;6.018;2023-11-19T00:48:16;13.10;99.90
23803;DHT22;12082;51.786;6.018;2023-11-19T00:50:43;13.10;99.90
23803;DHT22;12082;51.786;6.018;2023-11-19T00:53:10;13.10;99.90
23803;DHT22;12082;51.786;6.018;2023-11-19T00:55:36;13.10;99.90
23803;DHT22;12082;51.786;6.018;2023-11-19T00:58:01;13.10;99.90
23803;DHT22;12082;51.786;6.018;2023-11-19T01:00:28;13.20;99.90
23803;DHT22;12082;51.786;6.018;2023-11-19T01:02:54;13.10;99.90
23803;DHT22;12082;51.786;6.018;2023-11-19T01:05:22;13.10;99.90
23803;DHT22;12082;51.786;6.018;2023-11-19T01:07:48;13.20;99.90
23803;DHT22;12082;51.786;6.018;2023-11-19T01:10:14;13.20;99.90
23803;DHT22;12082;51.786;6.018;2023-11-19T01:12:41;13.20;99.90
23803;DHT22;12082;51.786;6.018;2023-11-19T01:15:07;13.40;99.90
23803;DHT22;12082;51.786;6.018;2023-11-19T01:17:33;13.20;99.90
23803;DHT22;12082;51.786;6.018;2023-11-19T01:19:59;13.10;99.90
23803;DHT22;12082;51.786;6.018;2023-11-19T01:22:24;13.10;99.90
23803;DHT22;12082;51.786;6.018;2023-11-19T01:24:50;13.10;99.90
23803;DHT22;12082;51.786;6.018;2023-11-19T01:27:17;13.10;99.90
23803;DHT22;12082;51.786;6.018;2023-11-19T01:29:43;13.20;99.90
23803;DHT22;12082;51.786;6.018;2023-11-19T01:32:08;13.20;99.90
23803;DHT22;12082;51.786;6.018;2023-11-19T01:34:34;13.20;99.90
23803;DHT22;12082;51.786;6.018;2023-11-19T01:37:00;13.20;99.90
23803;DHT22;12082;51.786;6.018;2023-11-19T01:39:25;13.20;99.90
23803;DHT22;12082;51.786;6.018;2023-11-19T01:41:51;13.30;99.90
23803;DHT22;12082;51.786;6.018;2023-11-19T01:44:17;13.20;99.90
23803;DHT22;12082;51.786;6.018;2023-11-19T01:46:45;13.30;99.90
23803;DHT22;12082;51.786;6.018;2023-11-19T01:49:14;13.20;99.90
23803;DHT22;12082;51.786;6.018;2023-11-19T01:51:41;13.20;99.90
23803;DHT22;12082;51.786;6.018;2023-11-19T01:54:07;13.20;99.90
23803;DHT22;12082;51.786;6.018;2023-11-19T01:56:33;13.30;99.90
23803;DHT22;12082;51.786;6.018;2023-11-19T01:59:00;13.30;99.90
23803;DHT22;12082;51.786;6.018;2023-11-19T02:01:26;13.30;99.90
23803;DHT22;12082;51.786;6.018;2023-11-19T02:03:52;13.20;99.90
23803;DHT22;12082;51.786;6.018;2023-11-19T02:06:18;13.30;99.90
23803;DHT22;12082;51.786;6.018;2023-11-19T02:08:44;13.40;99.90
23803;DHT22;12082;51.786;6.018;2023-11-19T02:11:09;13.30;99.90
23803;DHT22;12082;51.786;6.018;2023-11-19T02:13:37;13.30;99.90
23803;DHT22;12082;51.786;6.018;2023-11-19T02:16:03;13.30;99.90
23803;DHT22;12082;51.786;6.018;2023-11-19T02:18:30;13.30;99.90
23803;DHT22;12082;51.786;6.018;2023-11-19T02:20:59;13.30;99.90
23803;DHT22;12082;51.786;6.018;2023-11-19T02:23:27;13.30;99.90
23803;DHT22;12082;51.786;6.018;2023-11-19T02:28:45;13.30;99.90
23803;DHT22;12082;51.786;6.018;2023-11-19T02:31:11;13.30;99.90
23803;DHT22;12082;51.786;6.018;2023-11-19T02:33:37;13.20;99.90
23803;DHT22;12082;51.786;6.018;2023-11-19T02:36:04;13.20;99.90
23803;DHT22;12082;51.786;6.018;2023-11-19T02:38:30;13.20;99.90
23803;DHT22;12082;51.786;6.018;2023-11-19T02:40:57;13.30;99.90
23803;DHT22;12082;51.786;6.018;2023-11-19T02:43:22;13.10;99.90
23803;DHT22;12082;51.786;6.018;2023-11-19T02:45:48;13.20;99.90
23803;DHT22;12082;51.786;6.018;2023-11-19T02:48:14;13.20;99.90
23803;DHT22;12082;51.786;6.018;2023-11-19T02:50:41;13.20;99.90
23803;DHT22;12082;51.786;6.018;2023-11-19T02:53:07;13.20;99.90
23803;DHT22;12082;51.786;6.018;2023-11-19T02:55:33;13.20;99.90
23803;DHT22;12082;51.786;6.018;2023-11-19T02:58:04;13.10;99.90
23803;DHT22;12082;51.786;6.018;2023-11-19T03:00:35;13.40;99.90
23803;DHT22;12082;51.786;6.018;2023-11-19T03:03:13;13.10;99.90
23803;DHT22;12082;51.786;6.018;2023-11-19T03:05:48;13.00;99.90
23803;DHT22;12082;51.786;6.018;2023-11-19T03:08:16;13.00;99.90
23803;DHT22;12082;51.786;6.018;2023-11-19T03:10:42;13.10;99.90
23803;DHT22;12082;51.786;6.018;2023-11-19T03:13:12;13.00;99.90
23803;DHT22;12082;51.786;6.018;2023-11-19T03:15:42;12.90;99.90
23803;DHT22;12082;51.786;6.018;2023-11-19T03:18:08;12.90;99.90
23803;DHT22;12082;51.786;6.018;2023-11-19T03:20:33;13.00;99.90
23803;DHT22;12082;51.786;6.018;2023-11-19T03:22:59;12.80;99.90
23803;DHT22;12082;51.786;6.018;2023-11-19T03:25:27;12.70;99.90
23803;DHT22;12082;51.786;6.018;2023-11-19T03:27:58;12.80;99.90
23803;DHT22;12082;51.786;6.018;2023-11-19T03:30:24;12.60;99.90
23803;DHT22;12082;51.786;6.018;2023-11-19T03:32:50;12.70;99.90
23803;DHT22;12082;51.786;6.018;2023-11-19T03:35:15;12.80;99.90
23803;DHT22;12082;51.786;6.018;2023-11-19T03:37:41;12.80;99.90
23803;DHT22;12082;51.786;6.018;2023-11-19T03:40:07;12.80;99.90
23803;DHT22;12082;51.786;6.018;2023-11-19T03:42:32;12.80;99.90
23803;DHT22;12082;51.786;6.018;2023-11-19T03:44:58;12.60;99.90
23803;DHT22;12082;51.786;6.018;2023-11-19T03:47:24;12.50;99.90
23803;DHT22;12082;51.786;6.018;2023-11-19T03:49:50;12.40;99.90
23803;DHT22;12082;51.786;6.018;2023-11-19T03:52:17;12.30;99.90
23803;DHT22;12082;51.786;6.018;2023-11-19T03:54:43;12.30;99.90
23803;DHT22;12082;51.786;6.018;2023-11-19T03:57:08;12.30;99.90
23803;DHT22;12082;51.786;6.018;2023-11-19T03:59:36;12.30;99.90
23803;DHT22;12082;51.786;6.018;2023-11-19T04:02:02;12.30;99.90
23803;DHT22;12082;51.786;6.018;2023-11-19T04:04:28;12.30;99.90
23803;DHT22;12082;51.786;6.018;2023-11-19T04:06:55;12.30;99.90
23803;DHT22;12082;51.786;6.018;2023-11-19T04:09:20;12.30;99.90
23803;DHT22;12082;51.786;6.018;2023-11-19T04:11:46;12.30;99.90
23803;DHT22;12082;51.786;6.018;2023-11-19T04:14:13;12.20;99.90
23803;DHT22;12082;51.786;6.018;2023-11-19T04:16:39;12.30;99.90
23803;DHT22;12082;51.786;6.018;2023-11-19T04:19:04;12.10;99.90
23803;DHT22;12082;51.786;6.018;2023-11-19T04:21:30;12.10;99.90
23803;DHT22;12082;51.786;6.018;2023-11-19T04:23:56;12.10;99.90
23803;DHT22;12082;51.786;6.018;2023-11-19T04:26:21;12.10;99.90
23803;DHT22;12082;51.786;6.018;2023-11-19T04:28:47;12.00;99.90
23803;DHT22;12082;51.786;6.018;2023-11-19T04:31:17;12.00;99.90
23803;DHT22;12082;51.786;6.018;2023-11-19T04:33:44;11.80;99.90
23803;DHT22;12082;51.786;6.018;2023-11-19T04:36:12;11.80;99.90
23803;DHT22;12082;51.786;6.018;2023-11-19T04:38:39;11.80;99.90
23803;DHT22;12082;51.786;6.018;2023-11-19T04:41:06;11.80;99.90
23803;DHT22;12082;51.786;6.018;2023-11-19T04:43:32;11.80;99.90
23803;DHT22;12082;51.786;6.018;2023-11-19T04:45:57;11.80;99.90
23803;DHT22;12082;51.786;6.018;2023-11-19T04:48:23;11.80;99.90
23803;DHT22;12082;51.786;6.018;2023-11-19T04:50:49;11.80;99.90
23803;DHT22;12082;51.786;6.018;2023-11-19T04:53:17;11.80;99.90
23803;DHT22;12082;51.786;6.018;2023-11-19T04:55:43;11.80;99.90
23803;DHT22;12082;51.786;6.018;2023-11-19T04:58:08;11.80;99.90
23803;DHT22;12082;51.786;6.018;2023-11-19T05:00:34;11.80;99.90
23803;DHT22;12082;51.786;6.018;2023-11-19T05:03:00;11.70;99.90
23803;DHT22;12082;51.786;6.018;2023-11-19T05:05:25;11.70;99.90
23803;DHT22;12082;51.786;6.018;2023-11-19T05:07:51;11.70;99.90
23803;DHT22;12082;51.786;6.018;2023-11-19T05:10:16;11.70;99.90
23803;DHT22;12082;51.786;6.018;2023-11-19T05:12:42;11.80;99.90
23803;DHT22;12082;51.786;6.018;2023-11-19T05:15:08;11.80;99.90
23803;DHT22;12082;51.786;6.018;2023-11-19T05:17:34;11.80;99.90
23803;DHT22;12082;51.786;6.018;2023-11-19T05:19:59;11.70;99.90
23803;DHT22;12082;51.786;6.018;2023-11-19T05:22:25;11.70;99.90
23803;DHT22;12082;51.786;6.018;2023-11-19T05:24:51;11.60;99.90
23803;DHT22;12082;51.786;6.018;2023-11-19T05:27:17;11.70;99.90
23803;DHT22;12082;51.786;6.018;2023-11-19T05:29:43;11.60;99.90
23803;DHT22;12082;51.786;6.018;2023-11-19T05:32:09;11.70;99.90
23803;DHT22;12082;51.786;6.018;2023-11-19T05:34:35;11.60;99.90
23803;DHT22;12082;51.786;6.018;2023-11-19T05:37:01;11.70;99.90
23803;DHT22;12082;51.786;6.018;2023-11-19T05:39:27;11.60;99.90
23803;DHT22;12082;51.786;6.018;2023-11-19T05:41:53;11.90;99.90
23803;DHT22;12082;51.786;6.018;2023-11-19T05:44:19;11.70;99.90
23803;DHT22;12082;51.786;6.018;2023-11-19T05:46:45;11.70;99.90
23803;DHT22;12082;51.786;6.018;2023-11-19T05:49:11;11.60;99.90
23803;DHT22;12082;51.786;6.018;2023-11-19T05:51:40;11.50;99.90
23803;DHT22;12082;51.786;6.018;2023-11-19T05:54:09;11.50;99.90
23803;DHT22;12082;51.786;6.018;2023-11-19T05:56:36;11.50;99.90
23803;DHT22;12082;51.786;6.018;2023-11-19T05:59:02;11.50;99.90
23803;DHT22;12082;51.786;6.018;2023-11-19T06:01:29;11.50;99.90
23803;DHT22;12082;51.786;6.018;2023-11-19T06:03:55;11.50;99.90
23803;DHT22;12082;51.786;6.018;2023-11-19T06:06:20;11.40;99.90
23803;DHT22;12082;51.786;6.018;2023-11-19T06:08:46;11.50;99.90
23803;DHT22;12082;51.786;6.018;2023-11-19T06:11:12;11.30;99.90
23803;DHT22;12082;51.786;6.018;2023-11-19T06:13:43;11.70;99.90
23803;DHT22;12082;51.786;6.018;2023-11-19T06:16:09;11.70;99.90
23803;DHT22;12082;51.786;6.018;2023-11-19T06:18:36;11.80;99.90
23803;DHT22;12082;51.786;6.018;2023-11-19T06:21:02;11.60;99.90
23803;DHT22;12082;51.786;6.018;2023-11-19T06:23:27;11.60;99.90
23803;DHT22;12082;51.786;6.018;2023-11-19T06:25:53;11.40;99.90
23803;DHT22;12082;51.786;6.018;2023-11-19T06:28:19;11.50;99.90
23803;DHT22;12082;51.786;6.018;2023-11-19T06:30:44;11.40;99.90
23803;DHT22;12082;51.786;6.018;2023-11-19T06:33:13;11.40;99.90
23803;DHT22;12082;51.786;6.018;2023-11-19T06:35:38;11.50;99.90
23803;DHT22;12082;51.786;6.018;2023-11-19T06:38:04;11.40;99.90
23803;DHT22;12082;51.786;6.018;2023-11-19T06:40:34;11.30;99.90
23803;DHT22;12082;51.786;6.018;2023-11-19T06:43:03;11.30;99.90
23803;DHT22;12082;51.786;6.018;2023-11-19T06:45:33;11.20;99.90
23803;DHT22;12082;51.786;6.018;2023-11-19T06:48:02;11.30;99.90
23803;DHT22;12082;51.786;6.018;2023-11-19T06:50:32;11.40;99.90
23803;DHT22;12082;51.786;6.018;2023-11-19T06:52:58;11.50;99.90
23803;DHT22;12082;51.786;6.018;2023-11-19T06:55:24;11.40;99.90
23803;DHT22;12082;51.786;6.018;2023-11-19T06:57:49;11.30;99.90
23803;DHT22;12082;51.786;6.018;2023-11-19T07:00:15;11.40;99.90
23803;DHT22;12082;51.786;6.018;2023-11-19T07:02:41;11.30;99.90
23803;DHT22;12082;51.786;6.018;2023-11-19T07:05:06;11.30;99.90
23803;DHT22;12082;51.786;6.018;2023-11-19T07:07:33;11.40;99.90
23803;DHT22;12082;51.786;6.018;2023-11-19T07:09:59;11.40;99.90
23803;DHT22;12082;51.786;6.018;2023-11-19T07:12:24;11.40;99.90
23803;DHT22;12082;51.786;6.018;2023-11-19T07:14:52;11.40;99.90
23803;DHT22;12082;51.786;6.018;2023-11-19T07:17:18;11.40;99.90
23803;DHT22;12082;51.786;6.018;2023-11-19T07:19:45;11.30;99.90
23803;DHT22;12082;51.786;6.018;2023-11-19T07:22:11;11.30;99.90
23803;DHT22;12082;51.786;6.018;2023-11-19T07:24:39;11.40;99.90
23803;DHT22;12082;51.786;6.018;2023-11-19T07:27:05;11.50;99.90
23803;DHT22;12082;51.786;6.018;2023-11-19T07:29:32;11.40;99.90
23803;DHT22;12082;51.786;6.018;2023-11-19T07:31:57;11.40;99.90
23803;DHT22;12082;51.786;6.018;2023-11-19T07:34:23;11.40;99.90
23803;DHT22;12082;51.786;6.018;2023-11-19T07:36:50;11.40;99.90
23803;DHT22;12082;51.786;6.018;2023-11-19T07:39:15;11.40;99.90
23803;DHT22;12082;51.786;6.018;2023-11-19T07:41:41;11.30;99.90
23803;DHT22;12082;51.786;6.018;2023-11-19T07:44:06;11.50;99.90
23803;DHT22;12082;51.786;6.018;2023-11-19T07:46:32;11.40;99.90
23803;DHT22;12082;51.786;6.018;2023-11-19T07:48:58;11.40;99.90
23803;DHT22;12082;51.786;6.018;2023-11-19T07:51:24;11.50;99.90
23803;DHT22;12082;51.786;6.018;2023-11-19T07:53:49;11.50;99.90
23803;DHT22;12082;51.786;6.018;2023-11-19T07:56:15;11.50;99.90
23803;DHT22;12082;51.786;6.018;2023-11-19T07:58:40;11.60;99.90
23803;DHT22;12082;51.786;6.018;2023-11-19T08:01:06;11.50;99.90
23803;DHT22;12082;51.786;6.018;2023-11-19T08:03:32;11.60;99.90
23803;DHT22;12082;51.786;6.018;2023-11-19T08:05:59;11.60;99.90
23803;DHT22;12082;51.786;6.018;2023-11-19T08:08:25;11.70;99.90
23803;DHT22;12082;51.786;6.018;2023-11-19T08:10:51;11.70;99.90
23803;DHT22;12082;51.786;6.018;2023-11-19T08:13:18;11.70;99.90
23803;DHT22;12082;51.786;6.018;2023-11-19T08:15:43;11.70;99.90
23803;DHT22;12082;51.786;6.018;2023-11-19T08:18:09;11.70;99.90
23803;DHT22;12082;51.786;6.018;2023-11-19T08:20:34;11.70;99.90
23803;DHT22;12082;51.786;6.018;2023-11-19T08:23:02;11.70;99.90
23803;DHT22;12082;51.786;6.018;2023-11-19T08:25:29;11.80;99.90
23803;DHT22;12082;51.786;6.018;2023-11-19T08:27:54;12.20;99.90
23803;DHT22;12082;51.786;6.018;2023-11-19T08:30:20;11.90;99.90
23803;DHT22;12082;51.786;6.018;2023-11-19T08:32:45;11.90;99.90
23803;DHT22;12082;51.786;6.018;2023-11-19T08:35:11;11.90;99.90
23803;DHT22;12082;51.786;6.018;2023-11-19T08:37:36;11.90;99.90
23803;DHT22;12082;51.786;6.018;2023-11-19T08:40:03;11.90;99.90
23803;DHT22;12082;51.786;6.018;2023-11-19T08:42:30;11.80;99.90
23803;DHT22;12082;51.786;6.018;2023-11-19T08:44:55;11.90;99.90
23803;DHT22;12082;51.786;6.018;2023-11-19T08:47:21;11.90;99.90
23803;DHT22;12082;51.786;6.018;2023-11-19T08:49:50;11.90;99.90
23803;DHT22;12082;51.786;6.018;2023-11-19T08:52:17;11.90;99.90
23803;DHT22;12082;51.786;6.018;2023-11-19T08:54:43;11.90;99.90
23803;DHT22;12082;51.786;6.018;2023-11-19T08:57:08;11.90;99.90
23803;DHT22;12082;51.786;6.018;2023-11-19T08:59:35;12.00;99.90
23803;DHT22;12082;51.786;6.018;2023-11-19T09:02:00;12.00;99.90
23803;DHT22;12082;51.786;6.018;2023-11-19T09:04:27;11.90;99.90
23803;DHT22;12082;51.786;6.018;2023-11-19T09:06:53;11.90;99.90
23803;DHT22;12082;51.786;6.018;2023-11-19T09:09:18;11.90;99.90
23803;DHT22;12082;51.786;6.018;2023-11-19T09:11:44;12.00;99.90
23803;DHT22;12082;51.786;6.018;2023-11-19T09:14:09;12.00;99.90
23803;DHT22;12082;51.786;6.018;2023-11-19T09:16:35;12.10;99.90
23803;DHT22;12082;51.786;6.018;2023-11-19T09:19:01;12.20;99.90
23803;DHT22;12082;51.786;6.018;2023-11-19T09:21:28;12.30;99.90
23803;DHT22;12082;51.786;6.018;2023-11-19T09:23:57;12.30;99.90
23803;DHT22;12082;51.786;6.018;2023-11-19T09:26:23;12.40;99.90
23803;DHT22;12082;51.786;6.018;2023-11-19T09:28:48;12.40;99.90
23803;DHT22;12082;51.786;6.018;2023-11-19T09:31:15;12.40;99.90
23803;DHT22;12082;51.786;6.018;2023-11-19T09:33:40;12.40;99.90
23803;DHT22;12082;51.786;6.018;2023-11-19T09:36:06;12.40;99.90
23803;DHT22;12082;51.786;6.018;2023-11-19T09:38:32;12.30;99.90
23803;DHT22;12082;51.786;6.018;2023-11-19T09:40:59;12.30;99.90
23803;DHT22;12082;51.786;6.018;2023-11-19T09:43:27;12.30;99.90
23803;DHT22;12082;51.786;6.018;2023-11-19T09:45:55;12.30;99.90
23803;DHT22;12082;51.786;6.018;2023-11-19T09:48:21;12.20;99.90
23803;DHT22;12082;51.786;6.018;2023-11-19T09:50:50;12.20;99.90
23803;DHT22;12082;51.786;6.018;2023-11-19T09:53:17;12.30;99.90
23803;DHT22;12082;51.786;6.018;2023-11-19T09:55:42;12.30;99.90
23803;DHT22;12082;51.786;6.018;2023-11-19T09:58:09;12.40;99.90
23803;DHT22;12082;51.786;6.018;2023-11-19T10:00:37;12.40;99.90
23803;DHT22;12082;51.786;6.018;2023-11-19T10:03:05;12.40;99.90
23803;DHT22;12082;51.786;6.018;2023-11-19T10:05:32;12.50;99.90
23803;DHT22;12082;51.786;6.018;2023-11-19T10:07:58;12.70;99.90
23803;DHT22;12082;51.786;6.018;2023-11-19T10:10:23;12.80;99.90
23803;DHT22;12082;51.786;6.018;2023-11-19T10:12:51;12.80;99.90
23803;DHT22;12082;51.786;6.018;2023-11-19T10:15:25;12.90;99.90
23803;DHT22;12082;51.786;6.018;2023-11-19T10:17:56;12.80;99.90
23803;DHT22;12082;51.786;6.018;2023-11-19T10:20:22;12.70;99.90
23803;DHT22;12082;51.786;6.018;2023-11-19T10:22:47;12.70;99.90
23803;DHT22;12082;51.786;6.018;2023-11-19T10:25:27;12.80;99.90
23803;DHT22;12082;51.786;6.018;2023-11-19T10:27:53;12.80;99.90
23803;DHT22;12082;51.786;6.018;2023-11-19T10:30:24;12.90;99.90
23803;DHT22;12082;51.786;6.018;2023-11-19T10:35:35;12.80;99.90
23803;DHT22;12082;51.786;6.018;2023-11-19T10:38:14;12.70;99.90
23803;DHT22;12082;51.786;6.018;2023-11-19T10:40:43;12.80;99.90
23803;DHT22;12082;51.786;6.018;2023-11-19T10:43:09;12.80;99.90
23803;DHT22;12082;51.786;6.018;2023-11-19T10:45:35;12.80;99.90
23803;DHT22;12082;51.786;6.018;2023-11-19T10:48:02;12.90;99.90
23803;DHT22;12082;51.786;6.018;2023-11-19T10:50:31;12.90;99.90
23803;DHT22;12082;51.786;6.018;2023-11-19T10:52:57;12.80;99.90
23803;DHT22;12082;51.786;6.018;2023-11-19T10:55:34;12.80;99.90
23803;DHT22;12082;51.786;6.018;2023-11-19T10:58:15;12.80;99.90
23803;DHT22;12082;51.786;6.018;2023-11-19T11:00:47;12.80;99.90
23803;DHT22;12082;51.786;6.018;2023-11-19T11:03:19;12.80;99.90
23803;DHT22;12082;51.786;6.018;2023-11-19T11:05:51;13.00;99.90
23803;DHT22;12082;51.786;6.018;2023-11-19T11:08:19;13.00;99.90
23803;DHT22;12082;51.786;6.018;2023-11-19T11:10:55;13.00;99.90
23803;DHT22;12082;51.786;6.018;2023-11-19T11:13:25;13.00;99.90
23803;DHT22;12082;51.786;6.018;2023-11-19T11:15:55;13.10;99.90
23803;DHT22;12082;51.786;6.018;2023-11-19T11:18:23;13.10;99.90
23803;DHT22;12082;51.786;6.018;2023-11-19T11:20:53;13.10;99.90
23803;DHT22;12082;51.786;6.018;2023-11-19T11:26:25;13.30;99.90
23803;DHT22;12082;51.786;6.018;2023-11-19T11:37:32;13.70;99.90
23803;DHT22;12082;51.786;6.018;2023-11-19T11:39:59;13.70;99.90
23803;DHT22;12082;51.786;6.018;2023-11-19T11:47:24;13.70;99.90
23803;DHT22;12082;51.786;6.018;2023-11-19T11:49:50;13.70;99.90
23803;DHT22;12082;51.786;6.018;2023-11-19T11:52:17;13.60;99.90
23803;DHT22;12082;51.786;6.018;2023-11-19T11:54:44;13.50;99.90
23803;DHT22;12082;51.786;6.018;2023-11-19T11:57:14;13.50;99.90
23803;DHT22;12082;51.786;6.018;2023-11-19T12:02:11;13.20;99.90
23803;DHT22;12082;51.786;6.018;2023-11-19T12:04:38;13.20;99.90
23803;DHT22;12082;51.786;6.018;2023-11-19T12:07:27;13.00;99.90
23803;DHT22;12082;51.786;6.018;2023-11-19T12:09:56;12.90;99.90
23803;DHT22;12082;51.786;6.018;2023-11-19T12:12:32;12.90;99.90
23803;DHT22;12082;51.786;6.018;2023-11-19T12:17:48;12.90;99.90
23803;DHT22;12082;51.786;6.018;2023-11-19T12:20:21;12.90;99.90
23803;DHT22;12082;51.786;6.018;2023-11-19T12:22:49;12.90;99.90
23803;DHT22;12082;51.786;6.018;2023-11-19T12:25:16;12.80;99.90
23803;DHT22;12082;51.786;6.018;2023-11-19T12:27:49;12.80;99.90
23803;DHT22;12082;51.786;6.018;2023-11-19T12:30:25;12.70;99.90
23803;DHT22;12082;51.786;6.018;2023-11-19T12:32:51;12.60;99.90
23803;DHT22;12082;51.786;6.018;2023-11-19T12:35:19;12.70;99.90
23803;DHT22;12082;51.786;6.018;2023-11-19T12:37:46;12.70;99.90
23803;DHT22;12082;51.786;6.018;2023-11-19T12:40:23;12.90;99.90
23803;DHT22;12082;51.786;6.018;2023-11-19T12:42:49;12.90;99.90
23803;DHT22;12082;51.786;6.018;2023-11-19T12:45:16;12.90;99.90
23803;DHT22;12082;51.786;6.018;2023-11-19T12:47:43;12.90;99.90
23803;DHT22;12082;51.786;6.018;2023-11-19T12:50:10;12.90;99.90
23803;DHT22;12082;51.786;6.018;2023-11-19T12:52:36;12.80;99.90
23803;DHT22;12082;51.786;6.018;2023-11-19T12:55:28;12.70;99.90
23803;DHT22;12082;51.786;6.018;2023-11-19T12:57:55;12.70;99.90
23803;DHT22;12082;51.786;6.018;2023-11-19T13:00:22;13.00;99.90
23803;DHT22;12082;51.786;6.018;2023-11-19T13:02:50;12.90;99.90
23803;DHT22;12082;51.786;6.018;2023-11-19T13:08:01;13.00;99.90
23803;DHT22;12082;51.786;6.018;2023-11-19T13:10:27;13.00;99.90
23803;DHT22;12082;51.786;6.018;2023-11-19T13:13:03;13.10;99.90
23803;DHT22;12082;51.786;6.018;2023-11-19T13:15:29;13.10;99.90
23803;DHT22;12082;51.786;6.018;2023-11-19T13:17:55;13.10;99.90
23803;DHT22;12082;51.786;6.018;2023-11-19T13:20:20;13.00;99.90
23803;DHT22;12082;51.786;6.018;2023-11-19T13:23:00;13.00;99.90
23803;DHT22;12082;51.786;6.018;2023-11-19T13:25:27;13.00;99.90
23803;DHT22;12082;51.786;6.018;2023-11-19T13:27:53;13.20;99.90
23803;DHT22;12082;51.786;6.018;2023-11-19T13:30:19;13.20;99.90
23803;DHT22;12082;51.786;6.018;2023-11-19T13:32:45;13.20;99.90
23803;DHT22;12082;51.786;6.018;2023-11-19T13:35:12;13.10;99.90
23803;DHT22;12082;51.786;6.018;2023-11-19T13:37:38;12.90;99.90
23803;DHT22;12082;51.786;6.018;2023-11-19T13:40:04;12.90;99.90
23803;DHT22;12082;51.786;6.018;2023-11-19T13:42:30;12.90;99.90
23803;DHT22;12082;51.786;6.018;2023-11-19T13:44:56;12.90;99.90
23803;DHT22;12082;51.786;6.018;2023-11-19T13:47:21;12.60;99.90
23803;DHT22;12082;51.786;6.018;2023-11-19T13:49:47;12.10;99.90
23803;DHT22;12082;51.786;6.018;2023-11-19T13:52:13;11.80;99.90
23803;DHT22;12082;51.786;6.018;2023-11-19T13:54:38;11.60;99.90
23803;DHT22;12082;51.786;6.018;2023-11-19T13:57:04;11.60;99.90
23803;DHT22;12082;51.786;6.018;2023-11-19T13:59:31;11.50;99.90
23803;DHT22;12082;51.786;6.018;2023-11-19T14:01:58;11.60;99.90
23803;DHT22;12082;51.786;6.018;2023-11-19T14:04:23;11.70;99.90
23803;DHT22;12082;51.786;6.018;2023-11-19T14:06:49;11.70;99.90
23803;DHT22;12082;51.786;6.018;2023-11-19T14:09:14;11.80;99.90
23803;DHT22;12082;51.786;6.018;2023-11-19T14:11:40;11.80;99.90
23803;DHT22;12082;51.786;6.018;2023-11-19T14:14:07;11.90;99.90
23803;DHT22;12082;51.786;6.018;2023-11-19T14:16:33;11.90;99.90
23803;DHT22;12082;51.786;6.018;2023-11-19T14:18:59;11.90;99.90
23803;DHT22;12082;51.786;6.018;2023-11-19T14:21:25;11.80;99.90
23803;DHT22;12082;51.786;6.018;2023-11-19T14:23:52;11.80;99.90
23803;DHT22;12082;51.786;6.018;2023-11-19T14:26:18;11.80;99.90
23803;DHT22;12082;51.786;6.018;2023-11-19T14:28:43;11.90;99.90
23803;DHT22;12082;51.786;6.018;2023-11-19T14:31:09;11.90;99.90
23803;DHT22;12082;51.786;6.018;2023-11-19T14:33:34;11.90;99.90
23803;DHT22;12082;51.786;6.018;2023-11-19T14:36:01;12.00;99.90
23803;DHT22;12082;51.786;6.018;2023-11-19T14:38:27;11.90;99.90
23803;DHT22;12082;51.786;6.018;2023-11-19T14:40:55;12.00;99.90
23803;DHT22;12082;51.786;6.018;2023-11-19T14:43:21;12.00;99.90
23803;DHT22;12082;51.786;6.018;2023-11-19T14:45:47;12.10;99.90
23803;DHT22;12082;51.786;6.018;2023-11-19T14:48:12;12.00;99.90
23803;DHT22;12082;51.786;6.018;2023-11-19T14:50:38;12.00;99.90
23803;DHT22;12082;51.786;6.018;2023-11-19T14:53:03;12.00;99.90
23803;DHT22;12082;51.786;6.018;2023-11-19T14:55:29;12.00;99.90
23803;DHT22;12082;51.786;6.018;2023-11-19T14:57:54;12.00;99.90
23803;DHT22;12082;51.786;6.018;2023-11-19T15:00:22;12.10;99.90
23803;DHT22;12082;51.786;6.018;2023-11-19T15:02:47;12.00;99.90
23803;DHT22;12082;51.786;6.018;2023-11-19T15:05:13;12.00;99.90
23803;DHT22;12082;51.786;6.018;2023-11-19T15:07:39;11.90;99.90
23803;DHT22;12082;51.786;6.018;2023-11-19T15:10:08;11.80;99.90
23803;DHT22;12082;51.786;6.018;2023-11-19T15:12:38;11.80;99.90
23803;DHT22;12082;51.786;6.018;2023-11-19T15:15:07;11.70;99.90
23803;DHT22;12082;51.786;6.018;2023-11-19T15:17:33;11.80;99.90
23803;DHT22;12082;51.786;6.018;2023-11-19T15:19:59;11.80;99.90
23803;DHT22;12082;51.786;6.018;2023-11-19T15:22:24;11.70;99.90
23803;DHT22;12082;51.786;6.018;2023-11-19T15:24:50;11.40;99.90
23803;DHT22;12082;51.786;6.018;2023-11-19T15:27:15;11.20;99.90
23803;DHT22;12082;51.786;6.018;2023-11-19T15:29:41;11.10;99.90
23803;DHT22;12082;51.786;6.018;2023-11-19T15:32:07;11.00;99.90
23803;DHT22;12082;51.786;6.018;2023-11-19T15:34:33;11.10;99.90
23803;DHT22;12082;51.786;6.018;2023-11-19T15:36:59;11.00;99.90
23803;DHT22;12082;51.786;6.018;2023-11-19T15:39:26;11.00;99.90
23803;DHT22;12082;51.786;6.018;2023-11-19T15:41:53;11.10;99.90
23803;DHT22;12082;51.786;6.018;2023-11-19T15:44:18;11.00;99.90
23803;DHT22;12082;51.786;6.018;2023-11-19T15:46:44;11.00;99.90
23803;DHT22;12082;51.786;6.018;2023-11-19T15:49:09;11.00;99.90
23803;DHT22;12082;51.786;6.018;2023-11-19T15:51:36;11.00;99.90
23803;DHT22;12082;51.786;6.018;2023-11-19T15:54:01;11.00;99.90
23803;DHT22;12082;51.786;6.018;2023-11-19T15:56:27;11.00;99.90
23803;DHT22;12082;51.786;6.018;2023-11-19T15:58:52;11.00;99.90